createdAt,value
2022-08-01T00:00:18.209Z,23.39
2022-08-01T00:02:46.601Z,23.40
2022-08-01T00:05:15.089Z,23.41
2022-08-01T00:07:42.698Z,23.42
2022-08-01T00:10:13.067Z,23.44
2022-08-01T00:12:41.965Z,23.45
2022-08-01T00:15:12.057Z,23.44
2022-08-01T00:17:41.321Z,23.40
2022-08-01T00:20:13.456Z,23.39
2022-08-01T00:22:42.639Z,23.37
2022-08-01T00:25:10.234Z,23.39
2022-08-01T00:27:37.590Z,23.43
2022-08-01T00:30:12.033Z,23.42
2022-08-01T00:32:43.482Z,23.42
2022-08-01T00:35:11.094Z,23.42
2022-08-01T00:37:38.403Z,23.37
2022-08-01T00:40:07.311Z,23.36
2022-08-01T00:42:40.358Z,23.41
2022-08-01T00:45:11.165Z,23.41
2022-08-01T00:47:38.653Z,23.41
2022-08-01T00:50:08.458Z,23.41
2022-08-01T00:52:36.110Z,23.39
2022-08-01T00:55:04.435Z,23.38
2022-08-01T00:57:40.057Z,23.35
2022-08-01T01:00:19.374Z,23.35
2022-08-01T01:02:54.331Z,23.33
2022-08-01T01:05:22.771Z,23.31
2022-08-01T01:08:00.564Z,23.28
2022-08-01T01:10:40.530Z,23.27
2022-08-01T01:13:17.947Z,23.27
2022-08-01T01:15:56.124Z,23.28
2022-08-01T01:18:28.870Z,23.26
2022-08-01T01:21:08.456Z,23.24
2022-08-01T01:24:00.771Z,23.19
2022-08-01T01:26:44.510Z,23.18
2022-08-01T01:29:19.925Z,23.17
2022-08-01T01:31:52.540Z,23.18
2022-08-01T01:34:22.675Z,23.11
2022-08-01T01:36:54.989Z,23.11
2022-08-01T01:39:26.761Z,23.04
2022-08-01T01:41:57.312Z,23.07
2022-08-01T01:44:27.984Z,23.05
2022-08-01T01:46:57.728Z,23.01
2022-08-01T01:49:30.935Z,23.00
2022-08-01T01:52:03.203Z,22.99
2022-08-01T01:54:37.146Z,22.94
2022-08-01T01:57:08.803Z,22.96
2022-08-01T01:59:40.353Z,22.93
2022-08-01T02:02:10.434Z,22.88
2022-08-01T02:04:43.384Z,22.92
2022-08-01T02:07:15.098Z,22.87
2022-08-01T02:09:46.278Z,22.84
2022-08-01T02:12:17.160Z,22.83
2022-08-01T02:14:47.643Z,22.81
2022-08-01T02:17:19.466Z,22.74
2022-08-01T02:19:47.120Z,22.70
2022-08-01T02:22:21.143Z,22.69
2022-08-01T02:24:55.963Z,22.67
2022-08-01T02:27:35.455Z,22.63
2022-08-01T02:30:07.911Z,22.61
2022-08-01T02:32:42.370Z,22.56
2022-08-01T02:35:18.994Z,22.59
2022-08-01T02:37:49.321Z,22.54
2022-08-01T02:40:19.030Z,22.52
2022-08-01T02:42:50.906Z,22.50
2022-08-01T02:45:25.877Z,22.49
2022-08-01T02:47:59.873Z,22.46
2022-08-01T02:50:32.833Z,22.42
2022-08-01T02:53:03.511Z,22.44
2022-08-01T02:55:35.642Z,22.39
2022-08-01T02:58:04.179Z,22.40
2022-08-01T03:00:35.217Z,22.39
2022-08-01T03:03:08.728Z,22.36
2022-08-01T03:05:38.360Z,22.31
2022-08-01T03:08:11.940Z,22.29
2022-08-01T03:10:46.934Z,22.29
2022-08-01T03:13:17.927Z,22.26
2022-08-01T03:15:48.687Z,22.25
2022-08-01T03:18:18.229Z,22.20
2022-08-01T03:20:47.653Z,22.13
2022-08-01T03:23:17.423Z,22.10
2022-08-01T03:25:46.392Z,22.08
2022-08-01T03:28:16.766Z,22.07
2022-08-01T03:30:48.364Z,22.07
2022-08-01T03:33:15.328Z,22.04
2022-08-01T03:35:49.686Z,22.05
2022-08-01T03:38:23.590Z,22.07
2022-08-01T03:40:56.499Z,22.09
2022-08-01T03:43:33.360Z,22.09
2022-08-01T03:46:10.095Z,22.09
2022-08-01T03:48:43.596Z,22.10
2022-08-01T03:51:13.474Z,22.09
2022-08-01T03:53:45.450Z,22.09
2022-08-01T03:56:18.762Z,22.07
2022-08-01T03:58:50.004Z,22.07
2022-08-01T04:01:19.864Z,22.00
2022-08-01T04:03:47.777Z,21.76
2022-08-01T04:06:14.818Z,21.59
2022-08-01T04:08:42.385Z,21.39
2022-08-01T04:11:10.195Z,21.05
2022-08-01T04:13:38.546Z,21.15
2022-08-01T04:16:06.248Z,20.89
2022-08-01T04:18:34.501Z,20.89
2022-08-01T04:21:01.604Z,21.05
2022-08-01T04:23:32.695Z,21.20
2022-08-01T04:26:03.886Z,21.36
2022-08-01T04:28:35.613Z,21.63
2022-08-01T04:31:06.143Z,22.09
2022-08-01T04:33:36.316Z,22.62
2022-08-01T04:36:07.373Z,23.23
2022-08-01T04:38:38.050Z,23.92
2022-08-01T04:41:10.680Z,24.43
2022-08-01T04:43:38.906Z,24.88
2022-08-01T04:46:08.064Z,25.22
2022-08-01T04:48:39.559Z,25.46
2022-08-01T04:51:14.106Z,25.60
2022-08-01T04:53:41.270Z,25.67
2022-08-01T04:56:08.410Z,26.05
2022-08-01T04:58:35.315Z,26.44
2022-08-01T05:01:02.324Z,27.07
2022-08-01T05:03:29.755Z,27.70
2022-08-01T05:05:58.368Z,28.40
2022-08-01T05:08:25.522Z,29.06
2022-08-01T05:10:52.393Z,29.63
2022-08-01T05:13:19.327Z,30.30
2022-08-01T05:15:46.634Z,30.75
2022-08-01T05:18:14.628Z,31.23
2022-08-01T05:20:42.178Z,31.56
2022-08-01T05:23:11.052Z,31.90
2022-08-01T05:25:56.720Z,32.40
2022-08-01T05:28:25.178Z,32.82
2022-08-01T05:30:52.801Z,33.21
2022-08-01T05:33:19.893Z,33.54
2022-08-01T05:35:48.748Z,33.61
2022-08-01T05:39:09.734Z,34.26
2022-08-01T05:41:37.368Z,34.13
2022-08-01T05:44:05.160Z,33.64
2022-08-01T05:46:32.955Z,32.31
2022-08-01T05:49:01.099Z,31.60
2022-08-01T05:51:28.828Z,30.71
2022-08-01T05:53:57.367Z,30.20
2022-08-01T05:56:28.373Z,30.31
2022-08-01T05:58:58.854Z,31.18
2022-08-01T06:01:25.888Z,32.06
2022-08-01T06:03:52.971Z,32.97
2022-08-01T06:06:20.697Z,33.54
2022-08-01T06:08:52.735Z,33.55
2022-08-01T06:11:19.724Z,34.20
2022-08-01T06:13:49.041Z,34.87
2022-08-01T06:16:16.657Z,35.56
2022-08-01T06:18:43.745Z,35.55
2022-08-01T06:21:11.061Z,35.81
2022-08-01T06:23:37.910Z,35.75
2022-08-01T06:26:04.827Z,35.69
2022-08-01T06:28:31.668Z,35.85
2022-08-01T06:31:00.379Z,36.26
2022-08-01T06:33:28.376Z,35.62
2022-08-01T06:35:55.393Z,36.39
2022-08-01T06:38:23.271Z,35.95
2022-08-01T06:40:50.453Z,35.10
2022-08-01T06:43:17.452Z,35.16
2022-08-01T06:45:44.271Z,34.16
2022-08-01T06:48:12.690Z,33.30
2022-08-01T06:50:39.771Z,34.10
2022-08-01T06:53:06.939Z,34.07
2022-08-01T06:55:34.110Z,34.78
2022-08-01T06:58:01.375Z,35.25
2022-08-01T07:00:28.588Z,35.61
2022-08-01T07:02:58.198Z,36.72
2022-08-01T07:05:26.774Z,36.81
2022-08-01T07:07:55.012Z,37.88
2022-08-01T07:10:21.848Z,38.02
2022-08-01T07:12:48.796Z,38.80
2022-08-01T07:15:16.070Z,38.78
2022-08-01T07:17:43.991Z,39.49
2022-08-01T07:20:13.949Z,38.54
2022-08-01T07:22:47.401Z,38.67
2022-08-01T07:25:15.583Z,38.98
2022-08-01T07:27:43.142Z,39.04
2022-08-01T07:30:11.467Z,38.54
2022-08-01T07:32:38.333Z,38.65
2022-08-01T07:35:06.698Z,38.27
2022-08-01T07:37:47.797Z,38.36
2022-08-01T07:40:19.153Z,38.24
2022-08-01T07:42:46.247Z,38.12
2022-08-01T07:45:14.450Z,37.57
2022-08-01T07:47:41.592Z,37.55
2022-08-01T07:50:09.359Z,37.56
2022-08-01T07:52:36.646Z,37.87
2022-08-01T07:55:04.711Z,37.16
2022-08-01T07:57:33.464Z,37.36
2022-08-01T08:00:00.594Z,37.21
2022-08-01T08:02:27.576Z,36.44
2022-08-01T08:04:54.418Z,35.46
2022-08-01T08:07:21.356Z,35.25
2022-08-01T08:09:51.017Z,34.97
2022-08-01T08:12:18.534Z,34.40
2022-08-01T08:14:57.565Z,34.36
2022-08-01T08:17:25.394Z,34.28
2022-08-01T08:19:52.907Z,34.16
2022-08-01T08:22:20.005Z,34.08
2022-08-01T08:24:47.246Z,33.81
2022-08-01T08:27:15.006Z,33.82
2022-08-01T08:29:42.503Z,33.98
2022-08-01T08:32:11.163Z,34.15
2022-08-01T08:34:38.571Z,33.86
2022-08-01T08:37:05.544Z,33.66
2022-08-01T08:39:32.630Z,33.34
2022-08-01T08:42:11.768Z,32.79
2022-08-01T08:44:43.437Z,32.17
2022-08-01T08:47:19.769Z,31.93
2022-08-01T08:49:50.043Z,32.27
2022-08-01T08:52:20.252Z,32.20
2022-08-01T08:54:49.990Z,32.05
2022-08-01T08:57:20.497Z,32.22
2022-08-01T08:59:47.998Z,32.54
2022-08-01T09:02:16.141Z,32.71
2022-08-01T09:04:43.470Z,32.88
2022-08-01T09:07:12.760Z,32.92
2022-08-01T09:09:40.913Z,32.65
2022-08-01T09:12:10.256Z,32.80
2022-08-01T09:14:47.066Z,32.78
2022-08-01T09:17:15.808Z,32.63
2022-08-01T09:19:45.459Z,32.26
2022-08-01T09:22:15.811Z,32.04
2022-08-01T09:24:43.166Z,32.04
2022-08-01T09:27:20.999Z,31.92
2022-08-01T09:30:01.290Z,31.74
2022-08-01T09:32:35.936Z,31.79
2022-08-01T09:35:30.093Z,32.06
2022-08-01T09:38:14.788Z,31.63
2022-08-01T09:40:50.745Z,31.66
2022-08-01T09:43:19.329Z,31.55
2022-08-01T09:45:50.527Z,31.60
2022-08-01T09:48:20.505Z,31.90
2022-08-01T09:50:53.234Z,32.30
2022-08-01T09:53:29.389Z,32.80
2022-08-01T09:56:10.580Z,32.75
2022-08-01T09:58:58.129Z,33.26
2022-08-01T10:01:27.062Z,32.91
2022-08-01T10:04:12.446Z,32.96
2022-08-01T10:06:42.240Z,32.93
2022-08-01T10:09:12.534Z,32.90
2022-08-01T10:11:43.396Z,32.81
2022-08-01T10:14:13.053Z,32.92
2022-08-01T10:16:46.000Z,32.73
2022-08-01T10:19:23.769Z,32.67
2022-08-01T10:21:58.766Z,32.45
2022-08-01T10:24:30.457Z,32.40
2022-08-01T10:27:05.576Z,32.27
2022-08-01T10:29:46.332Z,32.15
2022-08-01T10:32:28.769Z,32.03
2022-08-01T10:34:57.981Z,32.39
2022-08-01T10:37:27.002Z,33.00
2022-08-01T10:40:14.027Z,33.23
2022-08-01T10:42:45.556Z,33.59
2022-08-01T10:45:16.043Z,33.47
2022-08-01T10:47:54.396Z,33.15
2022-08-01T10:50:39.361Z,33.07
2022-08-01T10:53:16.561Z,32.44
2022-08-01T10:55:59.373Z,31.58
2022-08-01T10:58:38.031Z,31.48
2022-08-01T11:01:21.260Z,31.41
2022-08-01T11:04:15.976Z,31.26
2022-08-01T11:07:10.160Z,31.90
2022-08-01T11:09:49.544Z,32.09
2022-08-01T11:12:23.508Z,32.34
2022-08-01T11:15:29.576Z,32.79
2022-08-01T11:18:00.565Z,32.49
2022-08-01T11:20:31.057Z,32.43
2022-08-01T11:23:18.444Z,32.24
2022-08-01T11:26:10.633Z,31.91
2022-08-01T11:28:40.455Z,31.48
2022-08-01T11:31:37.869Z,31.38
2022-08-01T11:34:06.387Z,31.62
2022-08-01T11:36:57.658Z,31.65
2022-08-01T11:39:22.027Z,32.14
2022-08-01T11:41:50.001Z,32.45
2022-08-01T11:44:21.262Z,33.23
2022-08-01T11:47:01.599Z,34.25
2022-08-01T11:49:49.235Z,34.69
2022-08-01T11:52:20.459Z,35.25
2022-08-01T11:54:53.310Z,35.19
2022-08-01T11:57:23.704Z,35.46
2022-08-01T12:00:11.322Z,35.16
2022-08-01T12:02:43.059Z,35.02
2022-08-01T12:05:15.994Z,34.53
2022-08-01T12:07:44.482Z,34.11
2022-08-01T12:10:16.166Z,33.96
2022-08-01T12:12:46.612Z,33.89
2022-08-01T12:15:14.447Z,33.68
2022-08-01T12:17:56.405Z,33.78
2022-08-01T12:20:30.359Z,33.35
2022-08-01T12:23:00.897Z,33.07
2022-08-01T12:25:30.291Z,33.14
2022-08-01T12:28:01.659Z,33.18
2022-08-01T12:30:29.787Z,32.73
2022-08-01T12:32:56.785Z,32.89
2022-08-01T12:35:26.420Z,32.78
2022-08-01T12:37:56.502Z,32.73
2022-08-01T12:40:26.656Z,32.88
2022-08-01T12:42:58.257Z,33.05
2022-08-01T12:45:28.573Z,32.67
2022-08-01T12:47:56.860Z,31.90
2022-08-01T12:50:33.369Z,32.04
2022-08-01T12:53:02.860Z,31.95
2022-08-01T12:55:33.908Z,31.94
2022-08-01T12:58:16.153Z,31.69
2022-08-01T13:00:46.793Z,31.71
2022-08-01T13:03:17.316Z,31.60
2022-08-01T13:05:47.159Z,31.80
2022-08-01T13:08:16.724Z,31.68
2022-08-01T13:10:45.007Z,31.59
2022-08-01T13:13:27.957Z,31.53
2022-08-01T13:16:06.777Z,31.65
2022-08-01T13:18:37.276Z,31.68
2022-08-01T13:21:13.071Z,31.55
2022-08-01T13:24:03.704Z,31.46
2022-08-01T13:26:50.900Z,31.47
2022-08-01T13:29:22.447Z,31.35
2022-08-01T13:31:49.868Z,31.35
2022-08-01T13:34:17.624Z,31.13
2022-08-01T13:36:49.399Z,31.10
2022-08-01T13:39:17.009Z,31.30
2022-08-01T13:41:45.282Z,31.30
2022-08-01T13:44:16.973Z,31.27
2022-08-01T13:46:49.739Z,31.41
2022-08-01T13:49:20.465Z,31.40
2022-08-01T13:51:49.978Z,31.50
2022-08-01T13:54:17.354Z,31.49
2022-08-01T13:56:44.350Z,31.45
2022-08-01T13:59:11.312Z,31.28
2022-08-01T14:01:38.712Z,31.26
2022-08-01T14:04:07.278Z,31.20
2022-08-01T14:06:35.172Z,31.23
2022-08-01T14:09:02.270Z,31.16
2022-08-01T14:11:45.803Z,31.23
2022-08-01T14:14:13.308Z,31.24
2022-08-01T14:16:40.751Z,31.27
2022-08-01T14:19:10.233Z,31.03
2022-08-01T14:21:38.009Z,31.29
2022-08-01T14:24:05.507Z,31.43
2022-08-01T14:26:32.365Z,31.53
2022-08-01T14:28:59.419Z,31.48
2022-08-01T14:31:28.757Z,31.21
2022-08-01T14:33:59.405Z,31.14
2022-08-01T14:36:30.263Z,31.35
2022-08-01T14:39:00.432Z,31.43
2022-08-01T14:41:28.322Z,31.51
2022-08-01T14:43:55.521Z,31.52
2022-08-01T14:46:22.565Z,31.46
2022-08-01T14:48:49.487Z,31.36
2022-08-01T14:51:16.429Z,31.54
2022-08-01T14:53:46.797Z,31.38
2022-08-01T14:56:18.131Z,31.41
2022-08-01T14:58:45.397Z,31.53
2022-08-01T15:01:12.283Z,31.43
2022-08-01T15:03:39.620Z,31.25
2022-08-01T15:06:06.646Z,31.07
2022-08-01T15:08:33.648Z,30.90
2022-08-01T15:11:02.454Z,30.90
2022-08-01T15:13:29.785Z,30.91
2022-08-01T15:16:00.076Z,30.77
2022-08-01T15:18:28.292Z,30.75
2022-08-01T15:20:55.583Z,30.75
2022-08-01T15:23:22.569Z,30.64
2022-08-01T15:25:50.314Z,30.48
2022-08-01T15:28:18.779Z,30.47
2022-08-01T15:30:46.157Z,30.37
2022-08-01T15:33:13.139Z,30.38
2022-08-01T15:35:40.402Z,30.33
2022-08-01T15:38:07.320Z,30.27
2022-08-01T15:40:34.321Z,30.26
2022-08-01T15:43:01.642Z,30.36
2022-08-01T15:48:17.784Z,30.40
2022-08-01T15:50:54.725Z,30.35
2022-08-01T15:53:26.645Z,30.35
2022-08-01T15:55:55.043Z,30.39
2022-08-01T15:58:31.081Z,30.30
2022-08-01T16:01:03.295Z,30.26
2022-08-01T16:03:36.440Z,30.27
2022-08-01T16:06:08.782Z,30.10
2022-08-01T16:08:41.802Z,29.96
2022-08-01T16:11:09.766Z,30.09
2022-08-01T16:13:42.884Z,30.15
2022-08-01T16:16:15.474Z,30.12
2022-08-01T16:18:46.369Z,30.10
2022-08-01T16:21:23.349Z,30.01
2022-08-01T16:24:05.747Z,29.95
2022-08-01T16:26:55.479Z,29.92
2022-08-01T16:29:31.460Z,29.89
2022-08-01T16:32:45.301Z,29.69
2022-08-01T16:34:57.029Z,29.56
2022-08-01T16:37:38.566Z,29.62
2022-08-01T16:40:16.148Z,29.61
2022-08-01T16:42:45.188Z,29.53
2022-08-01T16:45:29.952Z,29.47
2022-08-01T16:48:12.594Z,29.41
2022-08-01T16:50:42.887Z,29.26
2022-08-01T16:53:17.005Z,29.26
2022-08-01T16:55:50.575Z,29.09
2022-08-01T16:58:28.029Z,28.99
2022-08-01T17:00:57.459Z,28.90
2022-08-01T17:03:51.303Z,28.82
2022-08-01T17:06:20.257Z,28.72
2022-08-01T17:08:54.581Z,28.66
2022-08-01T17:11:26.953Z,28.65
2022-08-01T17:13:59.216Z,28.64
2022-08-01T17:16:38.004Z,28.63
2022-08-01T17:19:12.331Z,28.56
2022-08-01T17:21:49.032Z,28.40
2022-08-01T17:24:20.993Z,28.45
2022-08-01T17:26:53.464Z,28.45
2022-08-01T17:29:28.976Z,28.40
2022-08-01T17:32:16.334Z,28.34
2022-08-01T17:35:01.686Z,28.34
2022-08-01T17:37:31.944Z,28.39
2022-08-01T17:39:59.615Z,28.39
2022-08-01T17:42:33.986Z,28.35
2022-08-01T17:45:07.071Z,28.36
2022-08-01T17:48:28.304Z,28.35
2022-08-01T17:51:20.756Z,28.28
2022-08-01T17:53:57.379Z,28.31
2022-08-01T17:56:33.623Z,28.25
2022-08-01T17:59:08.606Z,28.19
2022-08-01T18:01:36.297Z,28.07
2022-08-01T18:04:06.445Z,28.07
2022-08-01T18:06:35.994Z,28.08
2022-08-01T18:09:09.516Z,28.05
2022-08-01T18:11:45.194Z,28.04
2022-08-01T18:14:21.875Z,27.89
2022-08-01T18:17:39.299Z,27.83
2022-08-01T18:20:20.071Z,27.82
2022-08-01T18:22:55.285Z,27.77
2022-08-01T18:26:03.283Z,27.71
2022-08-01T18:28:46.568Z,27.65
2022-08-01T18:31:20.677Z,27.64
2022-08-01T18:33:56.766Z,27.60
2022-08-01T18:36:34.398Z,27.54
2022-08-01T18:39:41.097Z,27.51
2022-08-01T18:42:17.250Z,27.43
2022-08-01T18:44:51.071Z,27.38
2022-08-01T18:47:27.224Z,27.33
2022-08-01T18:50:02.720Z,27.31
2022-08-01T18:52:33.851Z,27.22
2022-08-01T18:55:07.326Z,27.16
2022-08-01T18:57:42.730Z,27.10
2022-08-01T19:05:13.829Z,26.99
2022-08-01T19:31:49.311Z,26.32
2022-08-01T19:44:43.842Z,26.10
2022-08-01T19:51:20.705Z,25.92
2022-08-01T19:53:55.419Z,25.89
2022-08-01T19:56:35.542Z,25.86
2022-08-01T19:59:05.858Z,25.83
2022-08-01T20:01:35.773Z,25.83
2022-08-01T20:04:08.162Z,25.81
2022-08-01T20:06:46.747Z,25.76
2022-08-01T20:09:18.884Z,25.73
2022-08-01T20:11:51.857Z,25.70
2022-08-01T20:14:29.279Z,25.68
2022-08-01T20:17:05.801Z,25.62
2022-08-01T20:19:55.737Z,25.58
2022-08-01T20:22:34.699Z,25.58
2022-08-01T20:25:11.407Z,25.51
2022-08-01T20:27:50.438Z,25.53
2022-08-01T20:30:20.030Z,25.55
2022-08-01T20:33:12.237Z,25.59
2022-08-01T20:35:52.079Z,25.63
2022-08-01T20:38:27.474Z,25.63
2022-08-01T20:41:02.789Z,25.64
2022-08-01T20:43:43.951Z,25.68
2022-08-01T20:46:13.989Z,25.69
2022-08-01T20:49:00.229Z,25.64
2022-08-01T20:51:31.617Z,25.66
2022-08-01T20:54:01.871Z,25.64
2022-08-01T20:56:59.332Z,25.66
2022-08-01T20:59:55.685Z,25.64
2022-08-01T21:02:40.808Z,25.64
2022-08-01T21:05:31.178Z,25.60
2022-08-01T21:08:07.863Z,25.59
2022-08-01T21:10:46.824Z,25.58
2022-08-01T21:13:33.037Z,25.58
2022-08-01T21:16:22.059Z,25.56
2022-08-01T21:19:19.789Z,25.57
2022-08-01T21:22:13.846Z,25.48
2022-08-01T21:24:57.987Z,25.50
2022-08-01T21:27:41.748Z,25.47
2022-08-01T21:30:25.641Z,25.45
2022-08-01T21:32:59.857Z,25.36
2022-08-01T21:35:37.956Z,25.37
2022-08-01T21:38:26.206Z,25.35
2022-08-01T21:41:12.720Z,25.30
2022-08-01T21:43:51.342Z,25.28
2022-08-01T21:46:26.471Z,25.26
2022-08-01T21:49:14.181Z,25.25
2022-08-01T21:51:57.501Z,25.15
2022-08-01T21:54:45.682Z,25.19
2022-08-01T21:57:44.261Z,25.13
2022-08-01T22:00:24.917Z,25.11
2022-08-01T22:03:24.752Z,25.09
2022-08-01T22:06:00.700Z,25.04
2022-08-01T22:08:51.535Z,24.99
2022-08-01T22:11:27.660Z,24.97
2022-08-01T22:14:04.846Z,24.92
2022-08-01T22:16:40.052Z,24.88
2022-08-01T22:19:44.596Z,24.81
2022-08-01T22:22:02.660Z,24.74
2022-08-01T22:24:38.967Z,24.59
2022-08-01T22:27:07.924Z,24.45
2022-08-01T22:29:36.673Z,24.24
2022-08-01T22:32:12.460Z,24.18
2022-08-01T22:34:43.620Z,23.58
2022-08-01T22:37:14.921Z,23.32
2022-08-01T22:39:42.933Z,23.39
2022-08-01T22:42:17.858Z,23.19
2022-08-01T22:45:01.561Z,23.02
2022-08-01T22:48:00.814Z,22.88
2022-08-01T22:50:39.682Z,22.93
2022-08-01T22:53:35.149Z,22.81
2022-08-01T22:56:15.610Z,22.83
2022-08-01T22:58:45.834Z,22.92
2022-08-01T23:01:31.971Z,22.94
2022-08-01T23:04:33.357Z,23.01
2022-08-01T23:07:14.216Z,23.07
2022-08-01T23:09:53.734Z,23.17
2022-08-01T23:12:33.253Z,23.11
2022-08-01T23:15:07.204Z,23.09
2022-08-01T23:17:37.271Z,23.08
2022-08-01T23:20:15.566Z,23.23
2022-08-01T23:22:55.806Z,23.34
2022-08-01T23:25:40.647Z,23.37
2022-08-01T23:28:16.649Z,23.15
2022-08-01T23:31:01.046Z,22.92
2022-08-01T23:33:30.289Z,22.95
2022-08-01T23:36:01.122Z,23.07
2022-08-01T23:38:33.083Z,23.16
2022-08-01T23:41:05.867Z,23.23
2022-08-01T23:43:35.178Z,23.29
2022-08-01T23:46:08.320Z,23.11
2022-08-01T23:48:38.072Z,23.03
2022-08-01T23:51:17.268Z,22.85
2022-08-01T23:53:54.609Z,22.53
2022-08-01T23:56:32.091Z,22.63
2022-08-01T23:59:16.159Z,22.44
